Time;durP1;ratioP1;P1;durP2;ratioP2;P2;SDS_P1;SDS_P2;PMS_P1;PMS_P2;Temp;Humidity;BMP_temperature;BMP_pressure;BME280_temperature;BME280_humidity;BME280_pressure;Samples;Min_cycle;Max_cycle;Signal;HPM_P1;HPM_P2
2022/04/21 00:02:11;;;;;;;10.27;7.30;;;;;;;;;;5124174;28;20032;-69
2022/04/21 00:04:38;;;;;;;9.50;6.47;;;;;;;;;;5124228;28;20027;-69
2022/04/21 00:07:05;;;;;;;14.27;7.03;;;;;;;;;;5124389;28;20035;-69
2022/04/21 00:09:32;;;;;;;12.43;7.53;;;;;;;;;;5128702;28;20427;-69
2022/04/21 00:11:59;;;;;;;15.13;7.40;;;;;;;;;;5123329;28;20428;-69
2022/04/21 00:14:25;;;;;;;8.33;6.37;;;;;;;;;;5115339;28;20023;-70
2022/04/21 00:16:54;;;;;;;14.43;6.73;;;;;;;;;;5115610;28;20049;-69
2022/04/21 00:19:21;;;;;;;12.17;6.60;;;;;;;;;;5114853;28;20780;-69
2022/04/21 00:24:32;;;;;;;;;;;;;;;;;;5110490;28;20042;-69
2022/04/21 00:26:59;;;;;;;8.60;6.00;;;;;;;;;;5109874;28;19933;-68
2022/04/21 00:29:26;;;;;;;8.50;5.80;;;;;;;;;;5109339;28;20032;-69
2022/04/21 00:31:53;;;;;;;9.47;6.30;;;;;;;;;;5115399;28;20019;-68
2022/04/21 00:34:19;;;;;;;11.20;5.77;;;;;;;;;;5114941;28;20020;-69
2022/04/21 00:36:46;;;;;;;9.50;5.43;;;;;;;;;;5114525;28;20028;-69
2022/04/21 00:39:13;;;;;;;9.83;5.27;;;;;;;;;;5114713;28;20019;-69
2022/04/21 00:41:42;;;;;;;6.90;4.77;;;;;;;;;;5114489;28;20038;-69
2022/04/21 00:44:08;;;;;;;15.37;6.37;;;;;;;;;;5109384;28;20031;-69
2022/04/21 00:46:38;;;;;;;8.80;5.80;;;;;;;;;;5108903;28;20458;-69
2022/04/21 00:49:06;;;;;;;10.00;6.10;;;;;;;;;;5109637;28;20020;-69
2022/04/21 00:51:32;;;;;;;9.57;5.63;;;;;;;;;;5109551;28;20020;-68
2022/04/21 00:54:00;;;;;;;10.77;5.60;;;;;;;;;;5114548;28;20090;-68
2022/04/21 00:56:27;;;;;;;8.70;5.53;;;;;;;;;;5114543;28;20023;-69
2022/04/21 00:58:54;;;;;;;9.50;5.47;;;;;;;;;;5114695;28;20034;-69
2022/04/21 01:04:06;;;;;;;7.10;4.43;;;;;;;;;;5114102;28;20037;-69
2022/04/21 01:06:34;;;;;;;12.20;5.93;;;;;;;;;;5108883;28;20023;-69
2022/04/21 01:09:01;;;;;;;7.37;5.03;;;;;;;;;;5109259;28;20055;-69
2022/04/21 01:11:28;;;;;;;12.30;6.17;;;;;;;;;;5109235;28;20027;-69
2022/04/21 01:13:55;;;;;;;9.70;5.97;;;;;;;;;;5108583;28;20084;-70
2022/04/21 01:16:21;;;;;;;11.47;6.60;;;;;;;;;;5113910;28;20016;-68
2022/04/21 01:18:48;;;;;;;16.53;7.37;;;;;;;;;;5114206;28;20509;-68
2022/04/21 01:21:15;;;;;;;12.97;8.63;;;;;;;;;;5114135;28;20039;-69
2022/04/21 01:23:41;;;;;;;14.63;6.50;;;;;;;;;;5113328;28;20363;-69
2022/04/21 01:26:08;;;;;;;10.67;6.20;;;;;;;;;;5113882;28;20091;-69
2022/04/21 01:28:36;;;;;;;14.33;8.53;;;;;;;;;;5109033;28;20027;-68
2022/04/21 01:31:02;;;;;;;15.47;8.33;;;;;;;;;;5108408;28;20023;-71
2022/04/21 01:33:29;;;;;;;13.00;7.77;;;;;;;;;;5108854;28;20398;-68
2022/04/21 01:35:56;;;;;;;16.60;8.50;;;;;;;;;;5108104;28;20383;-68
2022/04/21 01:41:11;;;;;;;8.25;6.43;;;;;;;;;;5113933;28;20420;-68
2022/04/21 01:43:43;;;;;;;12.57;8.27;;;;;;;;;;5113187;28;20459;-70
2022/04/21 01:46:10;;;;;;;11.73;8.23;;;;;;;;;;5113856;28;20492;-69
2022/04/21 01:48:37;;;;;;;9.37;6.37;;;;;;;;;;5113763;28;20030;-68
2022/04/21 01:51:04;;;;;;;11.70;7.17;;;;;;;;;;5107579;28;20387;-68
2022/04/21 01:53:30;;;;;;;13.10;8.17;;;;;;;;;;5108092;28;20028;-69
2022/04/21 01:55:57;;;;;;;10.07;6.60;;;;;;;;;;5108308;28;20485;-68
2022/04/21 01:58:24;;;;;;;9.17;6.17;;;;;;;;;;5108145;28;20024;-68
2022/04/21 02:00:51;;;;;;;16.70;7.73;;;;;;;;;;5111925;28;20039;-69
2022/04/21 02:03:17;;;;;;;13.57;6.53;;;;;;;;;;5113632;28;20020;-68
2022/04/21 02:05:44;;;;;;;12.13;7.33;;;;;;;;;;5113309;28;20030;-69
2022/04/21 02:08:11;;;;;;;13.00;7.50;;;;;;;;;;5113439;28;20019;-68
2022/04/21 02:10:38;;;;;;;11.13;7.67;;;;;;;;;;5112901;28;20024;-68
2022/04/21 02:13:05;;;;;;;11.23;8.10;;;;;;;;;;5108573;28;20020;-68
2022/04/21 02:15:32;;;;;;;14.17;7.40;;;;;;;;;;5107937;28;20117;-68
2022/04/21 02:18:01;;;;;;;15.00;8.10;;;;;;;;;;5107564;28;20542;-69
2022/04/21 02:20:28;;;;;;;15.40;6.87;;;;;;;;;;5107143;28;20034;-69
2022/04/21 02:22:54;;;;;;;9.97;6.00;;;;;;;;;;5111399;28;20082;-68
2022/04/21 02:25:21;;;;;;;11.63;6.73;;;;;;;;;;5113153;28;20023;-68
2022/04/21 02:27:48;;;;;;;9.40;6.20;;;;;;;;;;5112377;28;20028;-68
2022/04/21 02:30:16;;;;;;;14.27;7.10;;;;;;;;;;5113073;28;20465;-68
2022/04/21 02:32:43;;;;;;;12.93;7.87;;;;;;;;;;5112530;28;20020;-68
2022/04/21 02:35:11;;;;;;;19.97;8.33;;;;;;;;;;5108427;28;20175;-69
2022/04/21 02:37:38;;;;;;;18.20;7.63;;;;;;;;;;5107490;28;20425;-69
2022/04/21 02:40:05;;;;;;;11.03;7.37;;;;;;;;;;5107190;28;20036;-68
2022/04/21 02:42:32;;;;;;;11.77;7.87;;;;;;;;;;5107528;28;20098;-68
2022/04/21 02:44:59;;;;;;;19.40;8.23;;;;;;;;;;5110249;28;20076;-68
2022/04/21 02:47:26;;;;;;;13.77;6.63;;;;;;;;;;5112516;28;20033;-68
2022/04/21 02:49:53;;;;;;;11.57;6.43;;;;;;;;;;5112678;28;20103;-70
2022/04/21 02:52:20;;;;;;;9.33;6.03;;;;;;;;;;5112356;28;20519;-68
2022/04/21 02:57:33;;;;;;;6.40;5.27;;;;;;;;;;5098653;28;20236;-69
2022/04/21 03:00:01;;;;;;;9.43;6.00;;;;;;;;;;5107361;28;20550;-68
2022/04/21 03:02:28;;;;;;;9.13;6.70;;;;;;;;;;5107017;28;20111;-70
2022/04/21 03:04:54;;;;;;;13.20;7.77;;;;;;;;;;5107587;28;20056;-68
2022/04/21 03:07:22;;;;;;;12.43;7.60;;;;;;;;;;5110214;28;20118;-68
2022/04/21 03:09:49;;;;;;;9.77;6.77;;;;;;;;;;5112121;28;20538;-69
2022/04/21 03:12:16;;;;;;;13.20;7.80;;;;;;;;;;5112703;28;20051;-68
2022/04/21 03:14:43;;;;;;;15.27;8.57;;;;;;;;;;5112510;28;20023;-68
2022/04/21 03:17:10;;;;;;;13.27;8.07;;;;;;;;;;5112556;28;20047;-68
2022/04/21 03:19:37;;;;;;;16.67;9.23;;;;;;;;;;5108629;28;20027;-70
2022/04/21 03:24:49;;;;;;;15.27;8.15;;;;;;;;;;5107292;28;20104;-68
2022/04/21 03:27:16;;;;;;;12.23;7.67;;;;;;;;;;5107058;28;20024;-69
2022/04/21 03:29:43;;;;;;;11.73;7.10;;;;;;;;;;5110375;28;20107;-68
2022/04/21 03:32:14;;;;;;;14.53;8.27;;;;;;;;;;5111852;28;20077;-70
2022/04/21 03:34:42;;;;;;;10.90;7.80;;;;;;;;;;5112140;28;20423;-68
2022/04/21 03:37:10;;;;;;;16.53;8.50;;;;;;;;;;5112508;28;20024;-68
2022/04/21 03:39:37;;;;;;;11.00;7.40;;;;;;;;;;5112384;28;20039;-68
2022/04/21 03:42:04;;;;;;;11.93;7.93;;;;;;;;;;5108202;28;20028;-68
2022/04/21 03:44:31;;;;;;;11.93;7.40;;;;;;;;;;5106962;28;20024;-68
2022/04/21 03:46:58;;;;;;;13.77;6.80;;;;;;;;;;5107860;28;20031;-68
2022/04/21 03:49:25;;;;;;;10.00;6.60;;;;;;;;;;5110560;28;20369;-68
2022/04/21 03:51:52;;;;;;;7.83;4.80;;;;;;;;;;5112613;28;20030;-68
2022/04/21 03:54:19;;;;;;;11.33;6.97;;;;;;;;;;5116165;28;20020;-68
2022/04/21 03:56:46;;;;;;;13.57;7.17;;;;;;;;;;5116074;28;20085;-68
2022/04/21 03:59:13;;;;;;;9.67;6.40;;;;;;;;;;5115998;28;20016;-68
2022/04/21 04:01:40;;;;;;;10.70;6.23;;;;;;;;;;5115631;28;20043;-68
2022/04/21 04:04:07;;;;;;;8.00;5.00;;;;;;;;;;5112737;28;20528;-68
2022/04/21 04:12:04;;;;;;;14.65;6.25;;;;;;;;;;5110230;28;20042;-68
2022/04/21 04:14:31;;;;;;;9.40;5.43;;;;;;;;;;5113595;28;20032;-68
2022/04/21 04:16:58;;;;;;;12.30;6.40;;;;;;;;;;5115592;28;20481;-68
2022/04/21 04:19:25;;;;;;;11.00;6.80;;;;;;;;;;5115548;28;20016;-68
2022/04/21 04:21:52;;;;;;;9.30;6.23;;;;;;;;;;5115052;28;20032;-68
2022/04/21 04:24:18;;;;;;;10.53;6.20;;;;;;;;;;5115607;28;20027;-68
2022/04/21 04:26:45;;;;;;;9.60;6.20;;;;;;;;;;5111502;28;20027;-68
2022/04/21 04:29:12;;;;;;;31.47;9.10;;;;;;;;;;5110174;28;20456;-68
2022/04/21 04:31:40;;;;;;;11.50;8.20;;;;;;;;;;5109289;28;20072;-68
2022/04/21 04:34:08;;;;;;;13.67;7.63;;;;;;;;;;5110066;28;20020;-68
2022/04/21 04:36:35;;;;;;;11.70;7.43;;;;;;;;;;5113153;28;20020;-67
2022/04/21 04:39:02;;;;;;;10.87;7.10;;;;;;;;;;5115216;28;20554;-68
2022/04/21 04:44:13;;;;;;;12.05;7.28;;;;;;;;;;5114754;28;20035;-68
2022/04/21 04:46:40;;;;;;;9.87;6.77;;;;;;;;;;5115154;28;20042;-67
2022/04/21 04:49:10;;;;;;;14.43;6.67;;;;;;;;;;5111150;28;20507;-68
2022/04/21 04:51:41;;;;;;;9.57;7.47;;;;;;;;;;5109270;28;20042;-68
2022/04/21 04:54:08;;;;;;;10.53;6.37;;;;;;;;;;5109567;28;20038;-68
2022/04/21 04:56:35;;;;;;;15.00;7.80;;;;;;;;;;5109581;28;20055;-67
2022/04/21 04:59:02;;;;;;;9.47;6.87;;;;;;;;;;5112121;28;20042;-67
2022/04/21 05:01:33;;;;;;;12.27;7.57;;;;;;;;;;5114622;28;20090;-67
2022/04/21 05:04:06;;;;;;;9.47;6.70;;;;;;;;;;5114649;28;20047;-67
2022/04/21 05:06:38;;;;;;;15.03;8.17;;;;;;;;;;5114580;28;20025;-67
2022/04/21 05:09:06;;;;;;;13.00;7.73;;;;;;;;;;5114394;28;20111;-68
2022/04/21 05:11:34;;;;;;;12.67;8.10;;;;;;;;;;5109938;28;20027;-68
2022/04/21 05:14:01;;;;;;;12.73;7.60;;;;;;;;;;5109351;28;20111;-68
2022/04/21 05:16:28;;;;;;;10.13;7.23;;;;;;;;;;5109309;28;20083;-67
2022/04/21 05:18:55;;;;;;;9.57;7.00;;;;;;;;;;5106753;28;20024;-65
2022/04/21 05:21:22;;;;;;;11.20;7.20;;;;;;;;;;5112082;28;20066;-64
2022/04/21 05:23:49;;;;;;;9.83;6.80;;;;;;;;;;5114148;28;20026;-64
2022/04/21 05:26:17;;;;;;;9.97;6.57;;;;;;;;;;5113814;28;20462;-71
2022/04/21 05:28:44;;;;;;;10.17;7.13;;;;;;;;;;5113419;28;20078;-67
2022/04/21 05:31:11;;;;;;;11.07;6.83;;;;;;;;;;5114144;28;20027;-66
2022/04/21 05:33:39;;;;;;;14.90;7.00;;;;;;;;;;5110205;28;20459;-68
2022/04/21 05:36:06;;;;;;;11.00;6.73;;;;;;;;;;5108411;28;20027;-68
2022/04/21 05:38:33;;;;;;;9.03;6.63;;;;;;;;;;5108512;28;20051;-68
2022/04/21 05:41:00;;;;;;;10.07;7.40;;;;;;;;;;5108585;28;20066;-64
2022/04/21 05:43:30;;;;;;;12.40;6.43;;;;;;;;;;5111167;28;20026;-66
2022/04/21 05:45:58;;;;;;;12.13;7.53;;;;;;;;;;5113972;28;20325;-63
2022/04/21 05:48:24;;;;;;;11.73;7.03;;;;;;;;;;5113389;28;20434;-64
2022/04/21 05:50:53;;;;;;;12.13;6.70;;;;;;;;;;5113741;28;20129;-64
2022/04/21 05:53:21;;;;;;;10.10;7.30;;;;;;;;;;5113266;28;20373;-67
2022/04/21 05:55:47;;;;;;;10.33;7.13;;;;;;;;;;5109657;28;20035;-65
2022/04/21 05:58:14;;;;;;;13.57;7.23;;;;;;;;;;5107983;28;20016;-66
2022/04/21 06:00:41;;;;;;;14.83;7.47;;;;;;;;;;5106991;28;20381;-65
2022/04/21 06:03:08;;;;;;;10.87;7.23;;;;;;;;;;5107734;28;20099;-65
2022/04/21 06:05:34;;;;;;;11.33;7.20;;;;;;;;;;5110054;28;20023;-67
2022/04/21 06:08:02;;;;;;;9.80;7.20;;;;;;;;;;5113384;28;20027;-67
2022/04/21 06:10:29;;;;;;;16.43;9.60;;;;;;;;;;5112586;28;20019;-66
2022/04/21 06:12:55;;;;;;;9.47;7.00;;;;;;;;;;5113401;28;20416;-67
2022/04/21 06:15:22;;;;;;;11.57;7.60;;;;;;;;;;5112928;28;20069;-67
2022/04/21 06:17:49;;;;;;;10.90;7.63;;;;;;;;;;5110034;28;20055;-67
2022/04/21 06:20:15;;;;;;;9.90;7.50;;;;;;;;;;5107910;28;20027;-67
2022/04/21 06:22:42;;;;;;;9.07;6.90;;;;;;;;;;5107582;28;20024;-67
2022/04/21 06:25:09;;;;;;;14.87;7.77;;;;;;;;;;5107853;28;20027;-67
2022/04/21 06:27:35;;;;;;;11.60;7.80;;;;;;;;;;5109455;28;20028;-67
2022/04/21 06:30:02;;;;;;;11.70;8.30;;;;;;;;;;5113270;28;20028;-67
2022/04/21 06:32:29;;;;;;;12.23;8.20;;;;;;;;;;5112603;28;20103;-67
2022/04/21 06:34:57;;;;;;;12.17;7.60;;;;;;;;;;5113037;28;20466;-67
2022/04/21 06:37:24;;;;;;;10.57;7.80;;;;;;;;;;5112718;28;20027;-67
2022/04/21 06:39:51;;;;;;;9.23;7.03;;;;;;;;;;5110406;28;20057;-67
2022/04/21 06:42:18;;;;;;;11.40;7.20;;;;;;;;;;5107692;28;20469;-66
2022/04/21 06:50:14;;;;;;;14.25;7.72;;;;;;;;;;5110445;28;20038;-66
2022/04/21 06:52:41;;;;;;;10.73;8.60;;;;;;;;;;5112830;28;20062;-67
2022/04/21 06:55:08;;;;;;;10.57;7.47;;;;;;;;;;5112667;28;20366;-67
2022/04/21 06:57:35;;;;;;;9.50;7.43;;;;;;;;;;5111969;28;20073;-67
2022/04/21 07:00:02;;;;;;;11.83;7.60;;;;;;;;;;5112711;28;20540;-66
2022/04/21 07:02:31;;;;;;;14.53;7.43;;;;;;;;;;5109957;28;20092;-67
2022/04/21 07:05:04;;;;;;;11.43;7.40;;;;;;;;;;5106556;28;20118;-67
2022/04/21 07:07:31;;;;;;;9.83;7.47;;;;;;;;;;5107163;28;20027;-66
2022/04/21 07:09:58;;;;;;;9.40;7.33;;;;;;;;;;5107370;28;20051;-67
2022/04/21 07:12:31;;;;;;;12.17;7.37;;;;;;;;;;5109403;28;20462;-67
2022/04/21 07:14:57;;;;;;;11.07;8.20;;;;;;;;;;5112455;28;20020;-67
2022/04/21 07:17:24;;;;;;;15.13;10.33;;;;;;;;;;5112232;28;20055;-66
2022/04/21 07:19:51;;;;;;;13.17;8.20;;;;;;;;;;5112394;28;20089;-67
2022/04/21 07:22:21;;;;;;;14.00;8.33;;;;;;;;;;5113633;28;20024;-67
2022/04/21 07:24:48;;;;;;;10.47;7.97;;;;;;;;;;5113729;28;20424;-67
2022/04/21 07:27:15;;;;;;;15.57;8.30;;;;;;;;;;5110961;28;20105;-68
2022/04/21 07:29:42;;;;;;;13.97;8.97;;;;;;;;;;5111359;28;20061;-68
2022/04/21 07:32:09;;;;;;;15.07;9.20;;;;;;;;;;5111005;28;20052;-67
2022/04/21 07:34:36;;;;;;;13.10;8.73;;;;;;;;;;5113415;28;20019;-66
2022/04/21 07:37:03;;;;;;;14.97;8.40;;;;;;;;;;5116592;28;20453;-67
2022/04/21 07:39:29;;;;;;;14.50;9.27;;;;;;;;;;5116305;28;20374;-67
2022/04/21 07:41:59;;;;;;;14.43;9.63;;;;;;;;;;5116271;28;20106;-67
2022/04/21 07:44:30;;;;;;;13.00;9.10;;;;;;;;;;5115680;28;20023;-67
2022/04/21 07:46:56;;;;;;;13.37;10.30;;;;;;;;;;5113300;28;20377;-67
2022/04/21 07:54:54;;;;;;;15.93;10.30;;;;;;;;;;5110949;28;20050;-67
2022/04/21 07:57:21;;;;;;;12.10;8.97;;;;;;;;;;5113595;28;20031;-66
2022/04/21 07:59:48;;;;;;;10.47;7.93;;;;;;;;;;5115902;28;20023;-67
2022/04/21 08:02:16;;;;;;;13.93;8.60;;;;;;;;;;5115876;28;20053;-67
2022/04/21 08:04:47;;;;;;;19.90;7.50;;;;;;;;;;5115720;28;20027;-67
2022/04/21 08:07:14;;;;;;;13.23;8.83;;;;;;;;;;5115542;28;20020;-66
2022/04/21 08:09:41;;;;;;;13.30;7.23;;;;;;;;;;5112151;28;20524;-67
2022/04/21 08:12:08;;;;;;;13.87;8.87;;;;;;;;;;5110642;28;20491;-67
2022/04/21 08:14:35;;;;;;;14.47;10.20;;;;;;;;;;5110385;28;20024;-67
2022/04/21 08:17:02;;;;;;;11.20;8.80;;;;;;;;;;5109527;28;20114;-67
2022/04/21 08:19:29;;;;;;;12.07;9.23;;;;;;;;;;5113071;28;20039;-67
2022/04/21 08:21:56;;;;;;;12.80;9.80;;;;;;;;;;5114908;28;20043;-67
2022/04/21 08:32:43;;;;;;;12.75;8.50;;;;;;;;;;5109874;28;20042;-66
2022/04/21 08:35:13;;;;;;;12.50;9.30;;;;;;;;;;5109697;28;20458;-67
2022/04/21 08:37:45;;;;;;;12.47;9.23;;;;;;;;;;5110073;28;20331;-66
2022/04/21 08:40:12;;;;;;;16.43;10.27;;;;;;;;;;5109509;28;20031;-67
2022/04/21 08:42:40;;;;;;;12.57;10.17;;;;;;;;;;5114551;28;20019;-66
2022/04/21 08:45:07;;;;;;;14.83;10.33;;;;;;;;;;5114815;28;20035;-66
2022/04/21 08:47:34;;;;;;;15.10;9.40;;;;;;;;;;5115023;28;20031;-67
2022/04/21 08:50:05;;;;;;;13.73;10.37;;;;;;;;;;5115024;28;20028;-66
2022/04/21 08:52:33;;;;;;;11.57;8.90;;;;;;;;;;5114643;28;20024;-66
2022/04/21 08:55:00;;;;;;;16.00;10.77;;;;;;;;;;5109185;28;20031;-66
2022/04/21 08:57:27;;;;;;;13.23;10.23;;;;;;;;;;5109589;28;20028;-67
2022/04/21 08:59:54;;;;;;;12.40;8.90;;;;;;;;;;5109366;28;20023;-66
2022/04/21 09:02:21;;;;;;;13.10;9.17;;;;;;;;;;5109072;28;20141;-66
2022/04/21 09:04:48;;;;;;;12.30;8.97;;;;;;;;;;5113928;28;20085;-67
2022/04/21 09:07:15;;;;;;;15.80;11.10;;;;;;;;;;5114807;28;20016;-66
2022/04/21 09:10:00;;;;;;;16.87;11.23;;;;;;;;;;5114481;28;20049;-70
2022/04/21 09:12:27;;;;;;;15.10;10.43;;;;;;;;;;5114084;28;20020;-66
2022/04/21 09:14:53;;;;;;;13.87;8.73;;;;;;;;;;5133176;27;20263;-67
2022/04/21 09:17:20;;;;;;;17.17;8.90;;;;;;;;;;5129417;27;20023;-66
2022/04/21 09:19:56;;;;;;;14.33;9.43;;;;;;;;;;5129759;27;20023;-67
2022/04/21 09:22:23;;;;;;;14.10;10.07;;;;;;;;;;5114870;27;20039;-69
2022/04/21 09:24:53;;;;;;;14.53;10.13;;;;;;;;;;5109053;28;20039;-66
2022/04/21 09:27:23;;;;;;;16.27;11.87;;;;;;;;;;5114077;28;20024;-66
2022/04/21 09:29:50;;;;;;;16.37;9.77;;;;;;;;;;5114217;28;20051;-67
2022/04/21 09:32:18;;;;;;;11.67;8.70;;;;;;;;;;5113822;28;20027;-66
2022/04/21 09:34:49;;;;;;;15.20;8.90;;;;;;;;;;5113842;28;20029;-69
2022/04/21 09:37:21;;;;;;;14.03;9.07;;;;;;;;;;5114107;28;20030;-66
2022/04/21 09:39:51;;;;;;;13.83;9.93;;;;;;;;;;5108809;28;20035;-66
2022/04/21 09:42:27;;;;;;;15.77;8.73;;;;;;;;;;5108353;28;20517;-66
2022/04/21 09:47:49;;;;;;;15.82;10.60;;;;;;;;;;5109763;28;20431;-66
2022/04/21 09:50:16;;;;;;;14.60;10.77;;;;;;;;;;5113961;28;20412;-66
2022/04/21 09:52:52;;;;;;;16.83;10.57;;;;;;;;;;5113219;28;20077;-66
2022/04/21 09:55:30;;;;;;;12.37;9.23;;;;;;;;;;5113251;28;20051;-67
2022/04/21 09:58:07;;;;;;;15.03;10.03;;;;;;;;;;5113607;28;20107;-66
2022/04/21 10:00:38;;;;;;;16.33;9.43;;;;;;;;;;5111103;28;20028;-67
2022/04/21 10:03:06;;;;;;;12.43;9.90;;;;;;;;;;5107984;28;20031;-67
2022/04/21 10:05:33;;;;;;;14.03;10.73;;;;;;;;;;5108094;28;20423;-69
2022/04/21 10:08:07;;;;;;;18.93;11.30;;;;;;;;;;5108156;28;20072;-66
2022/04/21 10:10:34;;;;;;;14.57;10.23;;;;;;;;;;5110168;28;20050;-66
2022/04/21 10:13:01;;;;;;;17.33;11.67;;;;;;;;;;5113224;28;20073;-66
2022/04/21 10:15:29;;;;;;;19.23;11.97;;;;;;;;;;5113391;28;20495;-65
2022/04/21 10:17:56;;;;;;;16.43;11.43;;;;;;;;;;5113491;28;20027;-66
2022/04/21 10:20:23;;;;;;;14.07;9.67;;;;;;;;;;5112744;28;20488;-67
2022/04/21 10:22:54;;;;;;;13.83;10.23;;;;;;;;;;5110416;28;20036;-66
2022/04/21 10:25:23;;;;;;;15.47;11.00;;;;;;;;;;5107989;28;20034;-66
2022/04/21 10:27:50;;;;;;;15.07;10.57;;;;;;;;;;5108098;28;20031;-67
2022/04/21 10:30:21;;;;;;;17.27;10.77;;;;;;;;;;5107920;28;20023;-66
2022/04/21 10:32:48;;;;;;;14.30;10.10;;;;;;;;;;5109561;28;20080;-66
2022/04/21 10:35:18;;;;;;;20.10;12.27;;;;;;;;;;5112684;28;20028;-66
2022/04/21 10:37:46;;;;;;;17.30;12.27;;;;;;;;;;5113080;28;20023;-66
2022/04/21 10:40:21;;;;;;;16.47;12.33;;;;;;;;;;5112850;28;20027;-65
2022/04/21 10:42:47;;;;;;;;;;;;;;;;;;5112968;28;20027;-66
2022/04/21 10:45:14;;;;;;;15.23;10.73;;;;;;;;;;5110306;28;19953;-66
2022/04/21 10:47:43;;;;;;;17.13;11.00;;;;;;;;;;5107117;28;20098;-67
2022/04/21 10:50:19;;;;;;;15.00;10.73;;;;;;;;;;5107555;28;20095;-66
2022/04/21 10:58:36;;;;;;;19.90;12.50;;;;;;;;;;5113199;28;20042;-66
2022/04/21 11:01:18;;;;;;;16.43;10.03;;;;;;;;;;5112269;28;20038;-66
2022/04/21 11:03:46;;;;;;;14.60;10.07;;;;;;;;;;5092405;28;20060;-66
2022/04/21 11:06:14;;;;;;;12.20;9.43;;;;;;;;;;5092292;28;20493;-65
2022/04/21 11:08:41;;;;;;;16.23;9.67;;;;;;;;;;5107451;28;20546;-66
2022/04/21 11:11:08;;;;;;;18.53;10.53;;;;;;;;;;5107061;28;20474;-66
2022/04/21 11:13:42;;;;;;;15.03;11.27;;;;;;;;;;5107347;28;20379;-65
2022/04/21 11:16:08;;;;;;;16.30;11.13;;;;;;;;;;5106787;28;20051;-66
2022/04/21 11:18:35;;;;;;;16.70;11.30;;;;;;;;;;5112135;28;20027;-66
2022/04/21 11:21:23;;;;;;;17.63;11.10;;;;;;;;;;5112393;28;20035;-66
2022/04/21 11:23:50;;;;;;;16.70;11.90;;;;;;;;;;5091982;28;20501;-66
2022/04/21 11:26:16;;;;;;;15.27;11.60;;;;;;;;;;5092205;28;20528;-68
2022/04/21 11:28:44;;;;;;;15.13;9.87;;;;;;;;;;5091875;28;20016;-65
2022/04/21 11:31:11;;;;;;;16.53;10.57;;;;;;;;;;5087074;28;20054;-66
2022/04/21 11:33:39;;;;;;;16.17;10.17;;;;;;;;;;5086725;28;20035;-66
2022/04/21 11:36:07;;;;;;;14.83;9.30;;;;;;;;;;5086869;28;20495;-66
2022/04/21 11:38:34;;;;;;;18.30;11.47;;;;;;;;;;5086740;28;20028;-67
2022/04/21 11:41:05;;;;;;;14.40;10.77;;;;;;;;;;5091611;28;20055;-66
2022/04/21 11:43:32;;;;;;;15.10;11.00;;;;;;;;;;5111582;28;20070;-66
2022/04/21 11:45:59;;;;;;;16.93;10.90;;;;;;;;;;5112277;28;20023;-66
2022/04/21 11:48:30;;;;;;;16.03;10.83;;;;;;;;;;5112399;28;20026;-66
2022/04/21 11:50:57;;;;;;;18.80;13.50;;;;;;;;;;5111649;28;20490;-66
2022/04/21 11:53:28;;;;;;;13.93;9.97;;;;;;;;;;5106699;28;20034;-66
2022/04/21 11:55:54;;;;;;;15.93;12.73;;;;;;;;;;5106597;28;20028;-66
2022/04/21 11:58:31;;;;;;;16.73;10.30;;;;;;;;;;5106981;28;20026;-66
2022/04/21 12:06:28;;;;;;;16.30;11.13;;;;;;;;;;5112117;28;19918;-65
2022/04/21 12:08:55;;;;;;;17.13;10.93;;;;;;;;;;5114248;28;20454;-66
2022/04/21 12:11:23;;;;;;;18.70;11.63;;;;;;;;;;5115665;28;20020;-65
2022/04/21 12:13:50;;;;;;;20.33;14.07;;;;;;;;;;5113902;28;20080;-66
2022/04/21 12:16:36;;;;;;;23.37;13.30;;;;;;;;;;5110170;28;20034;-66
2022/04/21 12:19:12;;;;;;;29.47;16.17;;;;;;;;;;5110382;28;20019;-66
2022/04/21 12:21:39;;;;;;;32.20;15.10;;;;;;;;;;5110451;28;20098;-65
2022/04/21 12:24:15;;;;;;;32.00;17.47;;;;;;;;;;5111885;28;20024;-65
2022/04/21 12:26:52;;;;;;;24.10;15.23;;;;;;;;;;5114792;28;20032;-66
2022/04/21 12:29:19;;;;;;;25.13;14.87;;;;;;;;;;5115396;28;20019;-66
2022/04/21 12:31:49;;;;;;;26.77;15.40;;;;;;;;;;5115144;28;20032;-66
2022/04/21 12:34:26;;;;;;;29.10;14.67;;;;;;;;;;5115401;28;20474;-66
2022/04/21 12:36:57;;;;;;;22.60;13.93;;;;;;;;;;5091283;28;20035;-66
2022/04/21 12:39:25;;;;;;;34.70;18.70;;;;;;;;;;5089687;28;20123;-66
2022/04/21 12:41:53;;;;;;;33.63;19.30;;;;;;;;;;5089266;28;20043;-66
2022/04/21 12:44:22;;;;;;;29.13;17.80;;;;;;;;;;5089582;28;20425;-66
2022/04/21 12:47:03;;;;;;;33.70;18.60;;;;;;;;;;5112253;28;20422;-65
2022/04/21 12:49:53;;;;;;;27.17;16.57;;;;;;;;;;5115136;28;20209;-65
2022/04/21 12:52:30;;;;;;;34.47;21.03;;;;;;;;;;5101972;28;20478;-67
2022/04/21 12:54:57;;;;;;;40.03;21.77;;;;;;;;;;5114679;28;20024;-67
2022/04/21 12:57:23;;;;;;;36.03;19.53;;;;;;;;;;5114405;28;20489;-67
2022/04/21 12:59:51;;;;;;;41.50;23.57;;;;;;;;;;5109363;28;20446;-67
2022/04/21 13:02:21;;;;;;;40.57;23.30;;;;;;;;;;5109537;28;20067;-67
2022/04/21 13:04:48;;;;;;;34.97;20.83;;;;;;;;;;5109592;28;20106;-67
2022/04/21 13:07:15;;;;;;;38.13;23.27;;;;;;;;;;5109364;28;20032;-67
2022/04/21 13:09:41;;;;;;;32.97;21.37;;;;;;;;;;5113352;28;20027;-67
2022/04/21 13:12:09;;;;;;;39.13;19.87;;;;;;;;;;5114033;28;20015;-67
2022/04/21 13:14:35;;;;;;;28.77;16.73;;;;;;;;;;5114496;28;20055;-68
2022/04/21 13:17:02;;;;;;;26.63;14.90;;;;;;;;;;5114397;28;20027;-67
2022/04/21 13:19:29;;;;;;;28.23;17.87;;;;;;;;;;5113793;28;20034;-68
2022/04/21 13:21:55;;;;;;;26.33;15.70;;;;;;;;;;5109771;28;20039;-68
2022/04/21 13:24:28;;;;;;;21.33;14.10;;;;;;;;;;5108765;28;20038;-67
2022/04/21 13:26:55;;;;;;;18.23;12.20;;;;;;;;;;5108616;28;20024;-68
2022/04/21 13:29:22;;;;;;;20.13;13.17;;;;;;;;;;5108703;28;20088;-68
2022/04/21 13:34:35;;;;;;;17.00;13.23;;;;;;;;;;5114405;28;20034;-68
2022/04/21 13:37:03;;;;;;;18.67;12.47;;;;;;;;;;5114065;28;20424;-68
2022/04/21 13:39:30;;;;;;;15.90;11.90;;;;;;;;;;5112938;28;20024;-69
2022/04/21 13:41:57;;;;;;;24.03;13.97;;;;;;;;;;5113638;28;20035;-68
2022/04/21 13:44:23;;;;;;;19.30;13.87;;;;;;;;;;5108902;28;20053;-68
2022/04/21 13:46:50;;;;;;;20.23;13.83;;;;;;;;;;5108443;28;20020;-68
2022/04/21 13:49:17;;;;;;;16.70;12.93;;;;;;;;;;5108135;28;20020;-68
2022/04/21 13:51:43;;;;;;;19.07;12.27;;;;;;;;;;5107454;28;20047;-69
2022/04/21 13:54:10;;;;;;;19.83;13.30;;;;;;;;;;5112308;28;20130;-70
2022/04/21 13:56:37;;;;;;;17.07;11.80;;;;;;;;;;5113725;28;20027;-69
2022/04/21 13:59:04;;;;;;;18.00;12.70;;;;;;;;;;5113938;28;20024;-69
2022/04/21 14:01:31;;;;;;;18.80;13.67;;;;;;;;;;5113316;28;20129;-69
2022/04/21 14:03:58;;;;;;;20.53;12.20;;;;;;;;;;5113657;28;20024;-69
2022/04/21 14:06:25;;;;;;;17.83;12.93;;;;;;;;;;5108677;28;20469;-69
2022/04/21 14:08:51;;;;;;;21.50;14.70;;;;;;;;;;5108010;28;20098;-69
2022/04/21 14:11:18;;;;;;;18.83;12.80;;;;;;;;;;5107514;28;20459;-68
2022/04/21 14:13:46;;;;;;;15.87;12.47;;;;;;;;;;5107828;28;20428;-69
2022/04/21 14:16:16;;;;;;;18.37;13.83;;;;;;;;;;5111898;28;20028;-69
2022/04/21 14:18:42;;;;;;;22.60;13.67;;;;;;;;;;5113384;28;20031;-69
2022/04/21 14:21:09;;;;;;;17.93;12.43;;;;;;;;;;5112900;28;20438;-69
2022/04/21 14:23:36;;;;;;;25.03;12.40;;;;;;;;;;5113123;28;20035;-69
2022/04/21 14:26:06;;;;;;;24.93;15.73;;;;;;;;;;5112813;28;20442;-69
2022/04/21 14:28:38;;;;;;;23.63;13.33;;;;;;;;;;5108727;28;20028;-69
2022/04/21 14:31:05;;;;;;;21.10;15.03;;;;;;;;;;5107153;28;20130;-69
2022/04/21 14:33:34;;;;;;;26.00;14.13;;;;;;;;;;5107576;28;20512;-69
2022/04/21 14:36:03;;;;;;;25.80;15.20;;;;;;;;;;5107512;28;20031;-69
2022/04/21 14:44:10;;;;;;;13.57;11.10;;;;;;;;;;5112952;28;20039;-70
2022/04/21 14:46:37;;;;;;;23.07;11.47;;;;;;;;;;5112971;28;20020;-69
2022/04/21 14:49:05;;;;;;;17.10;11.67;;;;;;;;;;5112342;28;20020;-70
2022/04/21 14:51:32;;;;;;;18.87;12.60;;;;;;;;;;5107044;28;20399;-70
2022/04/21 14:53:59;;;;;;;20.20;11.53;;;;;;;;;;5107639;28;20039;-69
2022/04/21 14:56:26;;;;;;;15.60;10.50;;;;;;;;;;5107323;28;20032;-70
2022/04/21 14:58:53;;;;;;;18.23;12.77;;;;;;;;;;5107076;28;20076;-73
2022/04/21 15:01:20;;;;;;;19.40;13.23;;;;;;;;;;5112272;28;20119;-69
2022/04/21 15:03:47;;;;;;;18.87;12.20;;;;;;;;;;5112655;28;20088;-70
2022/04/21 15:06:13;;;;;;;15.90;11.50;;;;;;;;;;5112635;28;20065;-70
2022/04/21 15:08:40;;;;;;;21.17;11.97;;;;;;;;;;5112673;28;20031;-70
2022/04/21 15:11:07;;;;;;;16.67;12.17;;;;;;;;;;5112272;28;20023;-69
2022/04/21 15:13:35;;;;;;;16.20;10.80;;;;;;;;;;5107077;28;20474;-69
2022/04/21 15:16:02;;;;;;;16.77;11.40;;;;;;;;;;5106716;28;20110;-69
2022/04/21 15:18:29;;;;;;;17.80;11.73;;;;;;;;;;5107209;28;20108;-70
2022/04/21 15:20:57;;;;;;;14.23;10.27;;;;;;;;;;5106556;28;20059;-70
2022/04/21 15:23:24;;;;;;;24.47;11.53;;;;;;;;;;5111842;28;20028;-69
2022/04/21 15:25:54;;;;;;;16.92;11.98;;;;;;;;;;5112503;28;20102;-70
2022/04/21 15:28:21;;;;;;;18.17;11.90;;;;;;;;;;5112483;28;20050;-69
2022/04/21 15:30:48;;;;;;;18.73;11.45;;;;;;;;;;5111598;28;20035;-70
2022/04/21 15:33:15;;;;;;;18.45;13.77;;;;;;;;;;5111828;28;20478;-70
2022/04/21 15:35:45;;;;;;;16.65;12.25;;;;;;;;;;5106968;28;20089;-69